< Cyclone 198414 1984 Season Cyclone 198416 >
Cyclone 198415 (INGRID)
General InformationTrack Information on Google MapsDetailed Wind InformationList of All Images || ResourceGoogle EarthGE AnimationAtom FeedGeoJSON
Detalied Best Track (Time Zone = UTC)
Year Month Day Hour Lat. Long. Pressure (hPa) Wind (kt) Class Image Chart
1984 2 20 09 -17.3 148.4 1001 25 2 Image --
1984 2 20 12 -17.3 147.6 1001 25 2 Image --
1984 2 20 15 -17.3 147.8 1001 25 2 Image --
1984 2 20 18 -17.2 148.0 1001 25 2 Image --
1984 2 20 21 -17.0 148.3 1001 25 2 Image --
1984 2 21 00 -16.9 148.8 1000 25 2 Image --
1984 2 21 06 -16.8 149.8 998 30 2 Image --
1984 2 21 12 -16.9 150.5 995 35 3 Image --
1984 2 21 18 -17.0 150.8 995 35 3 Image --
1984 2 22 00 -17.1 151.0 995 40 3 Image --
1984 2 22 06 -17.0 151.3 993 45 3 Image --
1984 2 22 12 -16.7 151.7 985 60 4 Image --
1984 2 22 18 -16.7 152.4 976 65 5 Image --
1984 2 23 00 -16.8 153.6 975 65 5 Image --
1984 2 23 06 -17.2 155.1 985 65 5 Image --
1984 2 23 12 -17.9 156.4 985 55 4 Image --
1984 2 23 18 -18.9 157.3 992 50 4 Image --
1984 2 24 00 -19.6 157.8 995 40 3 Image --
1984 2 24 06 -20.3 158.2 995 35 3 Image --
1984 2 24 12 -20.7 158.9 997 35 3 Image --
1984 2 24 18 -21.7 158.9 998 30 2 Image --
1984 2 25 00 -22.6 158.1 1002 25 2 Image --
1984 2 25 03 -22.9 157.9 1002 25 2 Image --
1984 2 25 06 -23.2 157.7 1002 25 2 Image --
1984 2 25 12 -23.8 157.4 1002 25 2 Image --
1984 2 25 18 -24.1 156.7 1002 25 2 Image --
1984 2 26 00 -24.5 156.1 1004 20 2 Image --
1984 2 26 06 -24.8 155.6 1004 20 2 Image --
< Cyclone 198414 1984 Season Cyclone 198416 >

Help